Kinrooi, Belgium
Current Conditions -  °F | °C
As of 8:25 PM on Friday 28 Nov 2014 (Local Time) from EBBL Reporting Station
Few Clouds Few Clouds  
Wind Chill: 35°   Ceiling: Unl
Heat Index: 41°   Visibility: 5mi
Dew Point: 37°   Wind: 10mph
Humidity: 87%   Direction: 90°E
Pressure: 29.83"   Gusts: NA
Location:  51.15°N, 5.74°E
Report Text: EBBL 281925Z AUTO 09009KT 8000 FEW150/// 05/03 Q1010 BLU
Loading
Personal Weather Stations






























Interactive Weather Map New forecast layout! Learn more

10-Day Weather Forecast

Advertisements
Track Severe Weather on mobile